Paisaje, Colorado
Current Conditions -  °F | °C
As of 4:52 PM on Monday 22 Dec 2014 (Local Time) from KALS Reporting Station
Clear Clear  
Wind Chill: 19°   Ceiling: Unl
Heat Index: 29°   Visibility: 10mi
Dew Point: 19°   Wind: 12mph
Humidity: 67%   Direction: 330°NNW
Pressure: 29.7"   Gusts: NA
Location:  37.1816°N, 106.262°W
Report Text: KALS 222352Z AUTO 33010KT 10SM CLR M02/M07 A2970 RMK AO2 SLP067 60002 T10171072 10033 21017 53007
Loading
Personal Weather Stations






























Interactive Weather Map New forecast layout! Learn more

10-Day Weather Forecast

Advertisements
Track Severe Weather on mobile